sensor_id;sensor_type;location;lat;lon;timestamp;P1;durP1;ratioP1;P2;durP2;ratioP2
151;SDS011;68;48.792;9.164;2023-06-26T00:01:51;33.67;;;16.97;;
151;SDS011;68;48.792;9.164;2023-06-26T00:04:18;27.40;;;11.87;;
151;SDS011;68;48.792;9.164;2023-06-26T00:06:44;32.53;;;14.90;;
151;SDS011;68;48.792;9.164;2023-06-26T00:09:11;29.47;;;15.30;;
151;SDS011;68;48.792;9.164;2023-06-26T00:11:39;28.57;;;14.77;;
151;SDS011;68;48.792;9.164;2023-06-26T00:14:06;29.63;;;15.10;;
151;SDS011;68;48.792;9.164;2023-06-26T00:16:33;33.83;;;13.77;;
151;SDS011;68;48.792;9.164;2023-06-26T00:19:00;30.00;;;15.70;;
151;SDS011;68;48.792;9.164;2023-06-26T00:21:26;31.07;;;16.27;;
151;SDS011;68;48.792;9.164;2023-06-26T00:23:53;31.30;;;15.10;;
151;SDS011;68;48.792;9.164;2023-06-26T00:26:20;30.90;;;16.10;;
151;SDS011;68;48.792;9.164;2023-06-26T00:28:48;30.60;;;14.40;;
151;SDS011;68;48.792;9.164;2023-06-26T00:31:15;29.27;;;12.60;;
151;SDS011;68;48.792;9.164;2023-06-26T00:33:41;28.67;;;12.80;;
151;SDS011;68;48.792;9.164;2023-06-26T00:36:08;32.90;;;16.83;;
151;SDS011;68;48.792;9.164;2023-06-26T00:38:35;29.10;;;15.17;;
151;SDS011;68;48.792;9.164;2023-06-26T00:41:02;28.37;;;12.07;;
151;SDS011;68;48.792;9.164;2023-06-26T00:43:30;29.30;;;14.50;;
151;SDS011;68;48.792;9.164;2023-06-26T00:45:58;35.60;;;13.60;;
151;SDS011;68;48.792;9.164;2023-06-26T00:48:24;29.37;;;13.63;;
151;SDS011;68;48.792;9.164;2023-06-26T00:50:51;30.80;;;15.83;;
151;SDS011;68;48.792;9.164;2023-06-26T00:53:18;26.30;;;11.57;;
151;SDS011;68;48.792;9.164;2023-06-26T00:55:45;30.07;;;15.60;;
151;SDS011;68;48.792;9.164;2023-06-26T00:58:12;30.90;;;15.67;;
151;SDS011;68;48.792;9.164;2023-06-26T01:00:39;28.40;;;13.87;;
151;SDS011;68;48.792;9.164;2023-06-26T01:03:11;30.53;;;15.73;;
151;SDS011;68;48.792;9.164;2023-06-26T01:05:38;36.37;;;12.37;;
151;SDS011;68;48.792;9.164;2023-06-26T01:08:05;32.60;;;18.40;;
151;SDS011;68;48.792;9.164;2023-06-26T01:10:32;31.67;;;16.10;;
151;SDS011;68;48.792;9.164;2023-06-26T01:12:59;31.53;;;15.83;;
151;SDS011;68;48.792;9.164;2023-06-26T01:15:26;31.13;;;16.27;;
151;SDS011;68;48.792;9.164;2023-06-26T01:17:52;31.37;;;15.47;;
151;SDS011;68;48.792;9.164;2023-06-26T01:20:29;29.47;;;15.53;;
151;SDS011;68;48.792;9.164;2023-06-26T01:22:59;27.70;;;12.67;;
151;SDS011;68;48.792;9.164;2023-06-26T01:25:33;29.27;;;14.47;;
151;SDS011;68;48.792;9.164;2023-06-26T01:28:05;28.53;;;13.83;;
151;SDS011;68;48.792;9.164;2023-06-26T01:30:33;28.83;;;14.20;;
151;SDS011;68;48.792;9.164;2023-06-26T01:33:01;31.47;;;14.87;;
151;SDS011;68;48.792;9.164;2023-06-26T01:35:29;30.70;;;14.20;;
151;SDS011;68;48.792;9.164;2023-06-26T01:38:10;31.93;;;16.10;;
151;SDS011;68;48.792;9.164;2023-06-26T01:40:38;29.47;;;15.00;;
151;SDS011;68;48.792;9.164;2023-06-26T01:43:06;32.00;;;18.13;;
151;SDS011;68;48.792;9.164;2023-06-26T01:45:41;31.70;;;15.80;;
151;SDS011;68;48.792;9.164;2023-06-26T01:48:10;28.07;;;13.80;;
151;SDS011;68;48.792;9.164;2023-06-26T01:50:42;27.90;;;13.17;;
151;SDS011;68;48.792;9.164;2023-06-26T01:53:11;32.00;;;18.60;;
151;SDS011;68;48.792;9.164;2023-06-26T01:55:44;29.80;;;15.93;;
151;SDS011;68;48.792;9.164;2023-06-26T01:58:14;32.97;;;18.03;;
151;SDS011;68;48.792;9.164;2023-06-26T02:00:42;30.73;;;14.47;;
151;SDS011;68;48.792;9.164;2023-06-26T02:03:09;33.17;;;17.77;;
151;SDS011;68;48.792;9.164;2023-06-26T02:05:36;26.87;;;12.30;;
151;SDS011;68;48.792;9.164;2023-06-26T02:08:02;27.87;;;15.07;;
151;SDS011;68;48.792;9.164;2023-06-26T02:10:29;27.97;;;12.73;;
151;SDS011;68;48.792;9.164;2023-06-26T02:12:56;26.80;;;12.87;;
151;SDS011;68;48.792;9.164;2023-06-26T02:15:24;31.80;;;16.57;;
151;SDS011;68;48.792;9.164;2023-06-26T02:17:51;28.90;;;16.60;;
151;SDS011;68;48.792;9.164;2023-06-26T02:20:18;28.90;;;15.10;;
151;SDS011;68;48.792;9.164;2023-06-26T02:22:45;28.57;;;14.77;;
151;SDS011;68;48.792;9.164;2023-06-26T02:25:11;33.03;;;16.70;;
151;SDS011;68;48.792;9.164;2023-06-26T02:27:38;29.50;;;15.30;;
151;SDS011;68;48.792;9.164;2023-06-26T02:30:05;30.70;;;17.87;;
151;SDS011;68;48.792;9.164;2023-06-26T02:32:35;30.73;;;15.67;;
151;SDS011;68;48.792;9.164;2023-06-26T02:35:02;31.57;;;16.63;;
151;SDS011;68;48.792;9.164;2023-06-26T02:37:29;32.10;;;18.43;;
151;SDS011;68;48.792;9.164;2023-06-26T02:39:56;30.17;;;15.77;;
151;SDS011;68;48.792;9.164;2023-06-26T02:42:22;32.40;;;16.97;;
151;SDS011;68;48.792;9.164;2023-06-26T02:44:49;30.90;;;16.83;;
151;SDS011;68;48.792;9.164;2023-06-26T02:47:16;30.90;;;16.20;;
151;SDS011;68;48.792;9.164;2023-06-26T02:49:45;33.43;;;15.70;;
151;SDS011;68;48.792;9.164;2023-06-26T02:52:11;30.57;;;17.10;;
151;SDS011;68;48.792;9.164;2023-06-26T02:54:38;29.47;;;15.30;;
151;SDS011;68;48.792;9.164;2023-06-26T02:57:05;29.57;;;16.43;;
151;SDS011;68;48.792;9.164;2023-06-26T02:59:32;30.50;;;17.20;;
151;SDS011;68;48.792;9.164;2023-06-26T03:01:59;32.43;;;18.90;;
151;SDS011;68;48.792;9.164;2023-06-26T03:04:25;28.87;;;15.00;;
151;SDS011;68;48.792;9.164;2023-06-26T03:06:54;32.00;;;16.93;;
151;SDS011;68;48.792;9.164;2023-06-26T03:09:20;30.67;;;16.43;;
151;SDS011;68;48.792;9.164;2023-06-26T03:11:47;32.57;;;17.57;;
151;SDS011;68;48.792;9.164;2023-06-26T03:14:14;31.80;;;17.93;;
151;SDS011;68;48.792;9.164;2023-06-26T03:16:41;29.97;;;16.20;;
151;SDS011;68;48.792;9.164;2023-06-26T03:19:07;32.30;;;17.20;;
151;SDS011;68;48.792;9.164;2023-06-26T03:21:34;28.67;;;16.10;;
151;SDS011;68;48.792;9.164;2023-06-26T03:24:02;33.83;;;15.50;;
151;SDS011;68;48.792;9.164;2023-06-26T03:26:30;30.30;;;15.60;;
151;SDS011;68;48.792;9.164;2023-06-26T03:28:57;30.27;;;15.07;;
151;SDS011;68;48.792;9.164;2023-06-26T03:31:24;33.97;;;17.17;;
151;SDS011;68;48.792;9.164;2023-06-26T03:33:52;32.33;;;16.37;;
151;SDS011;68;48.792;9.164;2023-06-26T03:36:18;30.70;;;15.70;;
151;SDS011;68;48.792;9.164;2023-06-26T03:38:45;34.47;;;17.47;;
151;SDS011;68;48.792;9.164;2023-06-26T03:41:13;29.30;;;14.70;;
151;SDS011;68;48.792;9.164;2023-06-26T03:43:40;31.60;;;17.13;;
151;SDS011;68;48.792;9.164;2023-06-26T03:46:07;35.10;;;17.30;;
151;SDS011;68;48.792;9.164;2023-06-26T03:48:33;32.20;;;17.20;;
151;SDS011;68;48.792;9.164;2023-06-26T03:51:00;32.20;;;16.77;;
151;SDS011;68;48.792;9.164;2023-06-26T03:53:27;32.23;;;15.27;;
151;SDS011;68;48.792;9.164;2023-06-26T03:55:54;29.07;;;14.77;;
151;SDS011;68;48.792;9.164;2023-06-26T03:58:22;30.37;;;16.57;;
151;SDS011;68;48.792;9.164;2023-06-26T04:00:50;29.40;;;16.00;;
151;SDS011;68;48.792;9.164;2023-06-26T04:03:17;32.50;;;16.40;;
151;SDS011;68;48.792;9.164;2023-06-26T04:05:43;38.00;;;16.80;;
151;SDS011;68;48.792;9.164;2023-06-26T04:08:10;30.70;;;15.63;;
151;SDS011;68;48.792;9.164;2023-06-26T04:10:37;33.60;;;16.70;;
151;SDS011;68;48.792;9.164;2023-06-26T04:13:04;29.77;;;15.77;;
151;SDS011;68;48.792;9.164;2023-06-26T04:15:32;33.63;;;17.57;;
151;SDS011;68;48.792;9.164;2023-06-26T04:17:58;32.13;;;16.90;;
151;SDS011;68;48.792;9.164;2023-06-26T04:20:25;29.30;;;16.43;;
151;SDS011;68;48.792;9.164;2023-06-26T04:22:55;30.30;;;16.20;;
151;SDS011;68;48.792;9.164;2023-06-26T04:25:22;29.73;;;16.00;;
151;SDS011;68;48.792;9.164;2023-06-26T04:27:48;29.10;;;15.70;;
151;SDS011;68;48.792;9.164;2023-06-26T04:30:16;32.00;;;16.37;;
151;SDS011;68;48.792;9.164;2023-06-26T04:32:44;30.33;;;15.40;;
151;SDS011;68;48.792;9.164;2023-06-26T04:35:11;29.80;;;14.67;;
151;SDS011;68;48.792;9.164;2023-06-26T04:37:38;34.07;;;16.40;;
151;SDS011;68;48.792;9.164;2023-06-26T04:40:05;29.07;;;14.23;;
151;SDS011;68;48.792;9.164;2023-06-26T04:42:34;29.93;;;15.67;;
151;SDS011;68;48.792;9.164;2023-06-26T04:45:01;38.00;;;16.30;;
151;SDS011;68;48.792;9.164;2023-06-26T04:47:28;32.37;;;16.47;;
151;SDS011;68;48.792;9.164;2023-06-26T04:49:58;29.70;;;16.17;;
151;SDS011;68;48.792;9.164;2023-06-26T04:52:25;27.17;;;14.90;;
151;SDS011;68;48.792;9.164;2023-06-26T04:54:52;29.53;;;15.40;;
151;SDS011;68;48.792;9.164;2023-06-26T04:57:18;27.17;;;13.37;;
151;SDS011;68;48.792;9.164;2023-06-26T04:59:45;30.00;;;15.03;;
151;SDS011;68;48.792;9.164;2023-06-26T05:02:12;30.03;;;16.27;;
151;SDS011;68;48.792;9.164;2023-06-26T05:04:39;28.77;;;13.10;;
151;SDS011;68;48.792;9.164;2023-06-26T05:07:08;27.67;;;13.70;;
151;SDS011;68;48.792;9.164;2023-06-26T05:09:37;28.50;;;15.00;;
151;SDS011;68;48.792;9.164;2023-06-26T05:12:04;30.70;;;13.90;;
151;SDS011;68;48.792;9.164;2023-06-26T05:14:31;28.47;;;12.80;;
151;SDS011;68;48.792;9.164;2023-06-26T05:16:58;28.13;;;13.27;;
151;SDS011;68;48.792;9.164;2023-06-26T05:19:24;30.53;;;15.40;;
151;SDS011;68;48.792;9.164;2023-06-26T05:21:51;28.27;;;11.60;;
151;SDS011;68;48.792;9.164;2023-06-26T05:24:19;26.43;;;12.60;;
151;SDS011;68;48.792;9.164;2023-06-26T05:26:48;28.17;;;12.40;;
151;SDS011;68;48.792;9.164;2023-06-26T05:29:15;28.97;;;13.03;;
151;SDS011;68;48.792;9.164;2023-06-26T05:31:42;29.00;;;12.90;;
151;SDS011;68;48.792;9.164;2023-06-26T05:34:13;29.27;;;14.60;;
151;SDS011;68;48.792;9.164;2023-06-26T05:36:40;27.20;;;11.93;;
151;SDS011;68;48.792;9.164;2023-06-26T05:39:08;28.70;;;12.97;;
151;SDS011;68;48.792;9.164;2023-06-26T05:41:37;28.97;;;13.83;;
151;SDS011;68;48.792;9.164;2023-06-26T05:44:04;30.63;;;13.10;;
151;SDS011;68;48.792;9.164;2023-06-26T05:46:31;33.43;;;14.70;;
151;SDS011;68;48.792;9.164;2023-06-26T05:48:58;27.50;;;12.17;;
151;SDS011;68;48.792;9.164;2023-06-26T05:51:26;27.60;;;12.27;;
151;SDS011;68;48.792;9.164;2023-06-26T05:53:53;27.40;;;11.70;;
151;SDS011;68;48.792;9.164;2023-06-26T05:56:20;32.67;;;14.00;;
151;SDS011;68;48.792;9.164;2023-06-26T05:58:49;26.77;;;11.73;;
151;SDS011;68;48.792;9.164;2023-06-26T06:01:16;27.07;;;10.70;;
151;SDS011;68;48.792;9.164;2023-06-26T06:03:44;30.33;;;12.27;;
151;SDS011;68;48.792;9.164;2023-06-26T06:06:10;28.33;;;12.33;;
151;SDS011;68;48.792;9.164;2023-06-26T06:08:37;28.17;;;11.63;;
151;SDS011;68;48.792;9.164;2023-06-26T06:11:04;31.50;;;12.57;;
151;SDS011;68;48.792;9.164;2023-06-26T06:13:31;28.47;;;12.10;;
151;SDS011;68;48.792;9.164;2023-06-26T06:15:59;30.40;;;12.53;;
151;SDS011;68;48.792;9.164;2023-06-26T06:18:26;30.83;;;12.57;;
151;SDS011;68;48.792;9.164;2023-06-26T06:20:53;25.77;;;11.27;;
151;SDS011;68;48.792;9.164;2023-06-26T06:23:20;30.50;;;11.73;;
151;SDS011;68;48.792;9.164;2023-06-26T06:25:47;32.73;;;14.70;;
151;SDS011;68;48.792;9.164;2023-06-26T06:28:13;30.07;;;11.10;;
151;SDS011;68;48.792;9.164;2023-06-26T06:30:41;27.30;;;11.70;;
151;SDS011;68;48.792;9.164;2023-06-26T06:33:09;27.30;;;11.80;;
151;SDS011;68;48.792;9.164;2023-06-26T06:35:36;28.00;;;12.63;;
151;SDS011;68;48.792;9.164;2023-06-26T06:38:03;28.70;;;13.37;;
151;SDS011;68;48.792;9.164;2023-06-26T06:40:30;43.07;;;13.63;;
151;SDS011;68;48.792;9.164;2023-06-26T06:42:57;27.90;;;11.50;;
151;SDS011;68;48.792;9.164;2023-06-26T06:45:23;35.00;;;12.23;;
151;SDS011;68;48.792;9.164;2023-06-26T06:47:50;27.50;;;12.13;;
151;SDS011;68;48.792;9.164;2023-06-26T06:50:18;32.93;;;12.37;;
151;SDS011;68;48.792;9.164;2023-06-26T06:52:45;42.37;;;13.40;;
151;SDS011;68;48.792;9.164;2023-06-26T06:55:12;30.90;;;11.50;;
151;SDS011;68;48.792;9.164;2023-06-26T06:57:39;27.63;;;12.00;;
151;SDS011;68;48.792;9.164;2023-06-26T07:00:07;29.13;;;12.70;;
151;SDS011;68;48.792;9.164;2023-06-26T07:02:35;31.23;;;11.80;;
151;SDS011;68;48.792;9.164;2023-06-26T07:05:02;28.63;;;11.90;;
151;SDS011;68;48.792;9.164;2023-06-26T07:07:31;33.53;;;11.80;;
151;SDS011;68;48.792;9.164;2023-06-26T07:09:59;35.20;;;12.57;;
151;SDS011;68;48.792;9.164;2023-06-26T07:12:27;37.60;;;13.00;;
151;SDS011;68;48.792;9.164;2023-06-26T07:14:54;34.53;;;12.67;;
151;SDS011;68;48.792;9.164;2023-06-26T07:17:21;30.93;;;12.10;;
151;SDS011;68;48.792;9.164;2023-06-26T07:19:49;37.17;;;12.50;;
151;SDS011;68;48.792;9.164;2023-06-26T07:22:16;34.83;;;13.17;;
151;SDS011;68;48.792;9.164;2023-06-26T07:24:46;27.10;;;11.90;;
151;SDS011;68;48.792;9.164;2023-06-26T07:27:13;27.80;;;12.23;;
151;SDS011;68;48.792;9.164;2023-06-26T07:29:40;30.70;;;11.93;;
151;SDS011;68;48.792;9.164;2023-06-26T07:32:07;26.07;;;10.67;;
151;SDS011;68;48.792;9.164;2023-06-26T07:34:34;28.23;;;11.47;;
151;SDS011;68;48.792;9.164;2023-06-26T07:37:01;30.53;;;12.83;;
151;SDS011;68;48.792;9.164;2023-06-26T07:39:27;28.13;;;11.77;;
151;SDS011;68;48.792;9.164;2023-06-26T07:41:56;28.17;;;10.57;;
151;SDS011;68;48.792;9.164;2023-06-26T07:44:23;26.60;;;9.80;;
151;SDS011;68;48.792;9.164;2023-06-26T07:46:50;28.83;;;9.97;;
151;SDS011;68;48.792;9.164;2023-06-26T07:49:17;26.57;;;9.60;;
151;SDS011;68;48.792;9.164;2023-06-26T07:51:43;26.27;;;10.53;;
151;SDS011;68;48.792;9.164;2023-06-26T07:54:10;26.93;;;9.70;;
151;SDS011;68;48.792;9.164;2023-06-26T07:56:52;25.70;;;9.07;;
151;SDS011;68;48.792;9.164;2023-06-26T07:59:21;25.77;;;9.10;;
151;SDS011;68;48.792;9.164;2023-06-26T08:01:48;27.17;;;9.97;;
151;SDS011;68;48.792;9.164;2023-06-26T08:04:15;24.73;;;9.30;;
151;SDS011;68;48.792;9.164;2023-06-26T08:06:41;28.97;;;11.10;;
151;SDS011;68;48.792;9.164;2023-06-26T08:09:09;31.23;;;9.73;;
151;SDS011;68;48.792;9.164;2023-06-26T08:11:37;26.60;;;9.97;;
151;SDS011;68;48.792;9.164;2023-06-26T08:14:04;31.93;;;9.73;;
151;SDS011;68;48.792;9.164;2023-06-26T08:16:32;24.20;;;8.70;;
151;SDS011;68;48.792;9.164;2023-06-26T08:18:59;26.03;;;8.60;;
151;SDS011;68;48.792;9.164;2023-06-26T08:21:26;23.70;;;9.30;;
151;SDS011;68;48.792;9.164;2023-06-26T08:23:54;25.40;;;9.20;;
151;SDS011;68;48.792;9.164;2023-06-26T08:26:20;25.30;;;9.40;;
151;SDS011;68;48.792;9.164;2023-06-26T08:28:47;25.97;;;9.27;;
151;SDS011;68;48.792;9.164;2023-06-26T08:31:14;24.27;;;8.67;;
151;SDS011;68;48.792;9.164;2023-06-26T08:33:43;27.50;;;8.07;;
151;SDS011;68;48.792;9.164;2023-06-26T08:36:10;22.60;;;8.30;;
151;SDS011;68;48.792;9.164;2023-06-26T08:38:36;24.07;;;8.33;;
151;SDS011;68;48.792;9.164;2023-06-26T08:41:05;23.53;;;8.30;;
151;SDS011;68;48.792;9.164;2023-06-26T08:43:32;25.57;;;8.60;;
151;SDS011;68;48.792;9.164;2023-06-26T08:45:59;25.80;;;8.33;;
151;SDS011;68;48.792;9.164;2023-06-26T08:48:26;24.00;;;8.37;;
151;SDS011;68;48.792;9.164;2023-06-26T08:50:57;23.60;;;8.13;;
151;SDS011;68;48.792;9.164;2023-06-26T08:53:29;37.77;;;8.37;;
151;SDS011;68;48.792;9.164;2023-06-26T08:55:59;24.93;;;8.33;;
151;SDS011;68;48.792;9.164;2023-06-26T08:58:26;23.97;;;7.77;;
151;SDS011;68;48.792;9.164;2023-06-26T09:00:53;25.30;;;8.47;;
151;SDS011;68;48.792;9.164;2023-06-26T09:03:22;23.37;;;8.10;;
151;SDS011;68;48.792;9.164;2023-06-26T09:05:50;25.83;;;8.57;;
151;SDS011;68;48.792;9.164;2023-06-26T09:08:19;22.90;;;8.10;;
151;SDS011;68;48.792;9.164;2023-06-26T09:10:45;23.60;;;8.90;;
151;SDS011;68;48.792;9.164;2023-06-26T09:13:12;23.90;;;8.00;;
151;SDS011;68;48.792;9.164;2023-06-26T09:15:41;30.83;;;7.80;;
151;SDS011;68;48.792;9.164;2023-06-26T09:18:09;23.20;;;7.70;;
151;SDS011;68;48.792;9.164;2023-06-26T09:20:39;25.00;;;8.87;;
151;SDS011;68;48.792;9.164;2023-06-26T09:23:05;22.60;;;7.80;;
151;SDS011;68;48.792;9.164;2023-06-26T09:25:34;23.33;;;8.03;;
151;SDS011;68;48.792;9.164;2023-06-26T09:28:05;22.20;;;7.70;;
151;SDS011;68;48.792;9.164;2023-06-26T09:30:32;24.17;;;8.27;;
151;SDS011;68;48.792;9.164;2023-06-26T09:33:02;23.07;;;7.57;;
151;SDS011;68;48.792;9.164;2023-06-26T09:35:40;23.10;;;8.03;;
151;SDS011;68;48.792;9.164;2023-06-26T09:38:06;24.23;;;7.73;;
151;SDS011;68;48.792;9.164;2023-06-26T09:40:35;21.87;;;7.43;;
151;SDS011;68;48.792;9.164;2023-06-26T09:43:03;24.40;;;7.50;;
151;SDS011;68;48.792;9.164;2023-06-26T09:45:30;22.70;;;7.97;;
151;SDS011;68;48.792;9.164;2023-06-26T09:47:59;24.77;;;8.60;;
151;SDS011;68;48.792;9.164;2023-06-26T09:50:27;24.20;;;8.77;;
151;SDS011;68;48.792;9.164;2023-06-26T09:52:54;27.60;;;8.90;;
151;SDS011;68;48.792;9.164;2023-06-26T09:55:21;25.90;;;7.97;;
151;SDS011;68;48.792;9.164;2023-06-26T09:57:50;22.40;;;7.80;;
151;SDS011;68;48.792;9.164;2023-06-26T10:00:17;24.80;;;8.00;;
151;SDS011;68;48.792;9.164;2023-06-26T10:02:45;24.50;;;7.83;;
151;SDS011;68;48.792;9.164;2023-06-26T10:05:11;26.43;;;8.00;;
151;SDS011;68;48.792;9.164;2023-06-26T10:07:38;23.27;;;7.80;;
151;SDS011;68;48.792;9.164;2023-06-26T10:10:06;24.40;;;8.20;;
151;SDS011;68;48.792;9.164;2023-06-26T10:12:35;29.73;;;8.97;;
151;SDS011;68;48.792;9.164;2023-06-26T10:15:03;32.37;;;9.17;;
151;SDS011;68;48.792;9.164;2023-06-26T10:17:32;23.80;;;8.70;;
151;SDS011;68;48.792;9.164;2023-06-26T10:20:02;31.83;;;8.73;;
151;SDS011;68;48.792;9.164;2023-06-26T10:22:33;24.30;;;8.50;;
151;SDS011;68;48.792;9.164;2023-06-26T10:25:04;25.63;;;8.93;;
151;SDS011;68;48.792;9.164;2023-06-26T10:27:34;32.40;;;9.10;;
151;SDS011;68;48.792;9.164;2023-06-26T10:30:06;23.83;;;8.87;;
151;SDS011;68;48.792;9.164;2023-06-26T10:32:38;25.17;;;8.83;;
151;SDS011;68;48.792;9.164;2023-06-26T10:35:07;26.20;;;9.40;;
151;SDS011;68;48.792;9.164;2023-06-26T10:37:43;23.60;;;8.87;;
151;SDS011;68;48.792;9.164;2023-06-26T10:40:11;25.63;;;9.77;;
151;SDS011;68;48.792;9.164;2023-06-26T10:42:38;33.10;;;9.50;;
151;SDS011;68;48.792;9.164;2023-06-26T10:45:10;23.93;;;8.73;;
151;SDS011;68;48.792;9.164;2023-06-26T10:47:40;26.27;;;9.60;;
151;SDS011;68;48.792;9.164;2023-06-26T10:50:17;26.93;;;9.63;;
151;SDS011;68;48.792;9.164;2023-06-26T10:52:45;23.80;;;8.70;;
151;SDS011;68;48.792;9.164;2023-06-26T10:55:32;26.20;;;8.60;;
151;SDS011;68;48.792;9.164;2023-06-26T10:57:59;27.50;;;9.60;;
151;SDS011;68;48.792;9.164;2023-06-26T11:00:28;24.30;;;9.40;;
151;SDS011;68;48.792;9.164;2023-06-26T11:02:55;27.33;;;8.60;;
151;SDS011;68;48.792;9.164;2023-06-26T11:05:25;37.83;;;8.87;;
151;SDS011;68;48.792;9.164;2023-06-26T11:08:02;24.40;;;9.20;;
151;SDS011;68;48.792;9.164;2023-06-26T11:10:31;26.70;;;9.60;;
151;SDS011;68;48.792;9.164;2023-06-26T11:13:15;27.27;;;9.20;;
151;SDS011;68;48.792;9.164;2023-06-26T11:15:44;30.50;;;9.47;;
151;SDS011;68;48.792;9.164;2023-06-26T11:18:12;27.27;;;9.20;;
151;SDS011;68;48.792;9.164;2023-06-26T11:20:39;31.10;;;9.53;;
151;SDS011;68;48.792;9.164;2023-06-26T11:23:05;30.27;;;8.80;;
151;SDS011;68;48.792;9.164;2023-06-26T11:25:34;24.93;;;9.10;;
151;SDS011;68;48.792;9.164;2023-06-26T11:28:02;30.07;;;9.90;;
151;SDS011;68;48.792;9.164;2023-06-26T11:30:29;24.07;;;9.10;;
151;SDS011;68;48.792;9.164;2023-06-26T11:33:04;30.27;;;8.93;;
151;SDS011;68;48.792;9.164;2023-06-26T11:35:32;30.37;;;9.43;;
151;SDS011;68;48.792;9.164;2023-06-26T11:37:59;26.00;;;9.00;;
151;SDS011;68;48.792;9.164;2023-06-26T11:40:30;25.20;;;8.70;;
151;SDS011;68;48.792;9.164;2023-06-26T11:42:57;23.77;;;9.00;;
151;SDS011;68;48.792;9.164;2023-06-26T11:45:25;26.33;;;9.33;;
151;SDS011;68;48.792;9.164;2023-06-26T11:47:54;24.30;;;8.70;;
151;SDS011;68;48.792;9.164;2023-06-26T11:50:23;27.63;;;8.93;;
151;SDS011;68;48.792;9.164;2023-06-26T11:52:53;24.00;;;8.80;;
151;SDS011;68;48.792;9.164;2023-06-26T11:55:21;24.00;;;9.03;;
151;SDS011;68;48.792;9.164;2023-06-26T11:57:48;26.80;;;8.63;;
151;SDS011;68;48.792;9.164;2023-06-26T12:00:16;23.23;;;8.03;;
151;SDS011;68;48.792;9.164;2023-06-26T12:02:43;25.57;;;8.43;;
151;SDS011;68;48.792;9.164;2023-06-26T12:05:12;23.47;;;8.70;;
151;SDS011;68;48.792;9.164;2023-06-26T12:07:43;25.70;;;8.40;;
151;SDS011;68;48.792;9.164;2023-06-26T12:10:11;33.77;;;9.20;;
151;SDS011;68;48.792;9.164;2023-06-26T12:12:39;26.90;;;8.40;;
151;SDS011;68;48.792;9.164;2023-06-26T12:15:06;26.00;;;9.17;;
151;SDS011;68;48.792;9.164;2023-06-26T12:17:36;24.30;;;8.27;;
151;SDS011;68;48.792;9.164;2023-06-26T12:20:05;26.20;;;9.27;;
151;SDS011;68;48.792;9.164;2023-06-26T12:22:44;27.70;;;8.43;;
151;SDS011;68;48.792;9.164;2023-06-26T12:25:12;24.93;;;8.90;;
151;SDS011;68;48.792;9.164;2023-06-26T12:27:39;33.10;;;8.37;;
151;SDS011;68;48.792;9.164;2023-06-26T12:30:06;26.40;;;8.67;;
151;SDS011;68;48.792;9.164;2023-06-26T12:32:34;33.33;;;8.27;;
151;SDS011;68;48.792;9.164;2023-06-26T12:35:01;28.83;;;9.13;;
151;SDS011;68;48.792;9.164;2023-06-26T12:37:28;27.60;;;9.57;;
151;SDS011;68;48.792;9.164;2023-06-26T12:39:57;25.47;;;9.10;;
151;SDS011;68;48.792;9.164;2023-06-26T12:42:24;27.30;;;8.80;;
151;SDS011;68;48.792;9.164;2023-06-26T12:44:52;31.60;;;8.87;;
151;SDS011;68;48.792;9.164;2023-06-26T12:47:23;24.80;;;9.00;;
151;SDS011;68;48.792;9.164;2023-06-26T12:49:51;28.13;;;8.80;;
151;SDS011;68;48.792;9.164;2023-06-26T12:52:19;23.93;;;8.13;;
151;SDS011;68;48.792;9.164;2023-06-26T12:54:46;24.17;;;8.67;;
151;SDS011;68;48.792;9.164;2023-06-26T12:57:19;22.90;;;7.80;;
151;SDS011;68;48.792;9.164;2023-06-26T12:59:46;24.13;;;8.97;;
151;SDS011;68;48.792;9.164;2023-06-26T13:02:12;27.80;;;9.37;;
151;SDS011;68;48.792;9.164;2023-06-26T13:04:39;29.23;;;8.97;;
151;SDS011;68;48.792;9.164;2023-06-26T13:07:09;32.50;;;8.77;;
151;SDS011;68;48.792;9.164;2023-06-26T13:09:36;27.23;;;8.20;;
151;SDS011;68;48.792;9.164;2023-06-26T13:12:05;26.03;;;9.03;;
151;SDS011;68;48.792;9.164;2023-06-26T13:14:34;23.93;;;8.23;;
151;SDS011;68;48.792;9.164;2023-06-26T13:17:01;25.90;;;8.67;;
151;SDS011;68;48.792;9.164;2023-06-26T13:19:28;24.83;;;8.40;;
151;SDS011;68;48.792;9.164;2023-06-26T13:21:55;30.33;;;8.37;;
151;SDS011;68;48.792;9.164;2023-06-26T13:24:22;24.27;;;8.43;;
151;SDS011;68;48.792;9.164;2023-06-26T13:26:48;23.63;;;8.03;;
151;SDS011;68;48.792;9.164;2023-06-26T13:29:15;26.90;;;7.53;;
151;SDS011;68;48.792;9.164;2023-06-26T13:31:43;28.73;;;8.03;;
151;SDS011;68;48.792;9.164;2023-06-26T13:34:19;26.60;;;9.10;;
151;SDS011;68;48.792;9.164;2023-06-26T13:36:47;31.00;;;8.27;;
151;SDS011;68;48.792;9.164;2023-06-26T13:39:13;23.87;;;7.37;;
151;SDS011;68;48.792;9.164;2023-06-26T13:41:40;28.97;;;7.47;;
151;SDS011;68;48.792;9.164;2023-06-26T13:44:07;21.23;;;6.80;;
151;SDS011;68;48.792;9.164;2023-06-26T13:46:33;24.00;;;7.33;;
151;SDS011;68;48.792;9.164;2023-06-26T13:49:02;26.43;;;6.90;;
151;SDS011;68;48.792;9.164;2023-06-26T13:51:28;22.83;;;7.27;;
151;SDS011;68;48.792;9.164;2023-06-26T13:53:55;25.80;;;7.57;;
151;SDS011;68;48.792;9.164;2023-06-26T13:56:25;26.47;;;6.70;;
151;SDS011;68;48.792;9.164;2023-06-26T13:58:54;23.93;;;7.23;;
151;SDS011;68;48.792;9.164;2023-06-26T14:01:20;23.57;;;7.20;;
151;SDS011;68;48.792;9.164;2023-06-26T14:03:49;23.97;;;7.40;;
151;SDS011;68;48.792;9.164;2023-06-26T14:06:17;26.07;;;6.40;;
151;SDS011;68;48.792;9.164;2023-06-26T14:08:45;28.03;;;6.60;;
151;SDS011;68;48.792;9.164;2023-06-26T14:11:12;29.80;;;6.17;;
151;SDS011;68;48.792;9.164;2023-06-26T14:13:40;27.37;;;6.67;;
151;SDS011;68;48.792;9.164;2023-06-26T14:16:07;21.53;;;6.33;;
151;SDS011;68;48.792;9.164;2023-06-26T14:18:34;27.70;;;6.93;;
151;SDS011;68;48.792;9.164;2023-06-26T14:21:01;20.53;;;6.00;;
151;SDS011;68;48.792;9.164;2023-06-26T14:23:30;24.00;;;5.93;;
151;SDS011;68;48.792;9.164;2023-06-26T14:25:58;24.17;;;6.07;;
151;SDS011;68;48.792;9.164;2023-06-26T14:28:25;22.03;;;5.57;;
151;SDS011;68;48.792;9.164;2023-06-26T14:30:52;21.80;;;5.80;;
151;SDS011;68;48.792;9.164;2023-06-26T14:33:19;20.77;;;5.40;;
151;SDS011;68;48.792;9.164;2023-06-26T14:35:45;22.50;;;5.03;;
151;SDS011;68;48.792;9.164;2023-06-26T14:38:12;21.87;;;5.30;;
151;SDS011;68;48.792;9.164;2023-06-26T14:40:40;22.30;;;5.50;;
151;SDS011;68;48.792;9.164;2023-06-26T14:43:07;27.10;;;5.33;;
151;SDS011;68;48.792;9.164;2023-06-26T14:45:34;20.80;;;5.30;;
151;SDS011;68;48.792;9.164;2023-06-26T14:48:01;20.30;;;5.30;;
151;SDS011;68;48.792;9.164;2023-06-26T14:50:27;21.47;;;5.73;;
151;SDS011;68;48.792;9.164;2023-06-26T14:52:54;22.00;;;5.57;;
151;SDS011;68;48.792;9.164;2023-06-26T14:55:21;21.07;;;5.80;;
151;SDS011;68;48.792;9.164;2023-06-26T14:57:49;20.60;;;5.70;;
151;SDS011;68;48.792;9.164;2023-06-26T15:00:16;22.77;;;5.20;;
151;SDS011;68;48.792;9.164;2023-06-26T15:02:43;23.43;;;5.30;;
151;SDS011;68;48.792;9.164;2023-06-26T15:05:10;22.33;;;5.50;;
151;SDS011;68;48.792;9.164;2023-06-26T15:07:36;20.80;;;5.30;;
151;SDS011;68;48.792;9.164;2023-06-26T15:10:03;30.03;;;6.07;;
151;SDS011;68;48.792;9.164;2023-06-26T15:12:34;26.90;;;5.60;;
151;SDS011;68;48.792;9.164;2023-06-26T15:15:06;20.20;;;5.20;;
151;SDS011;68;48.792;9.164;2023-06-26T15:17:36;27.03;;;6.50;;
151;SDS011;68;48.792;9.164;2023-06-26T15:20:03;21.13;;;6.20;;
151;SDS011;68;48.792;9.164;2023-06-26T15:22:31;21.07;;;6.07;;
151;SDS011;68;48.792;9.164;2023-06-26T15:24:58;23.23;;;6.40;;
151;SDS011;68;48.792;9.164;2023-06-26T15:27:24;21.67;;;6.17;;
151;SDS011;68;48.792;9.164;2023-06-26T15:29:51;41.93;;;6.67;;
151;SDS011;68;48.792;9.164;2023-06-26T15:32:19;24.00;;;6.90;;
151;SDS011;68;48.792;9.164;2023-06-26T15:34:46;24.43;;;6.83;;
151;SDS011;68;48.792;9.164;2023-06-26T15:37:13;22.70;;;6.90;;
151;SDS011;68;48.792;9.164;2023-06-26T15:39:42;25.40;;;7.30;;
151;SDS011;68;48.792;9.164;2023-06-26T15:42:09;23.90;;;6.83;;